ANACAPA ISLAND CA US current weather conditions

sailwx.info

Wind from 003 at 8 knots gusting 11

Air temperature 22.8° C
Dewpoint 20.3° C

Last reported at 2014-Sep-20 16:23 UTC.
Time now 2014-Sep-20 18:06 UTC

Location: N 34°01' W 119°22'.
View on Google Maps.

See reports from other nearby stations

  
Tides and Currents Weather Stations Pressure Air Temp Water Temp Dewpoint Dewpoint Depression Visibility Wind Speed Wind Dir Waves Ship Positions
date/time (UTC)wind fromknots sea level pressurealtimeterstation pressurevisibilityair tempwater tempwave heightnotes
2014-Sep-20 16:23 003 8 gusting 11 22.8
2014-Sep-20 15:23 014 5 gusting 6 25.6
2014-Sep-20 14:23 033 3 gusting 6 24.4
2014-Sep-20 13:23 043 6 gusting 9 22.8
2014-Sep-20 12:23 316 6 gusting 8 21.7
2014-Sep-20 11:23 307 6 gusting 9 20.0
2014-Sep-20 10:23 316 8 gusting 12 20.6
2014-Sep-20 09:23 314 10 gusting 12 20.0
2014-Sep-20 08:23 314 11 gusting 15 20.0
2014-Sep-20 07:23 315 12 gusting 18 20.6
2014-Sep-20 06:23 304 15 gusting 24 20.6
2014-Sep-20 05:23 298 18 gusting 26 19.4
2014-Sep-20 04:23 297 17 gusting 24 19.4
2014-Sep-20 03:23 300 17 gusting 24 20.6
2014-Sep-20 02:23 300 16 gusting 21 20.6
2014-Sep-20 01:23 303 14 gusting 19 20.6
2014-Sep-20 00:23 301 14 gusting 19 20.0
2014-Sep-19 23:23 301 8 gusting 13 21.7
2014-Sep-19 22:23 301 11 gusting 13 20.6
2014-Sep-19 21:23 308 7 gusting 9 21.1
2014-Sep-19 20:23 318 3 gusting 8 23.3
2014-Sep-19 19:23 301 6 gusting 8 21.1
2014-Sep-19 18:23 306 7 gusting 9 21.7
2014-Sep-19 17:23 354 5 gusting 6 23.3
2014-Sep-19 16:23 357 5 gusting 6 21.7
2014-Sep-19 15:23 009 5 gusting 9 20.6
2014-Sep-19 14:23 036 6 gusting 9 19.4
2014-Sep-19 13:23 304 0 gusting 5 19.4
2014-Sep-19 12:23 266 2 gusting 7 20.6
2014-Sep-19 11:23 101 0 gusting 5 19.4
2014-Sep-19 10:23 288 1 gusting 4 20.6
2014-Sep-19 09:23 136 1 gusting 14 20.6
2014-Sep-19 08:23 279 10 gusting 19 20.6
2014-Sep-19 07:23 289 11 gusting 17 20.6
2014-Sep-19 06:23 294 13 gusting 19 20.0
2014-Sep-19 05:23 300 7 gusting 13 20.6
2014-Sep-19 04:23 310 1 gusting 7 21.1
2014-Sep-19 03:23 255 8 gusting 26 21.7
2014-Sep-19 02:23 287 16 gusting 29 21.1
2014-Sep-19 01:23 285 19 gusting 28 22.2
2014-Sep-19 00:23 291 18 gusting 26 21.1
2014-Sep-18 23:23 299 13 gusting 20 22.2
2014-Sep-18 22:23 300 13 gusting 20 22.2
2014-Sep-18 21:23 289 6 gusting 16 22.8
2014-Sep-18 20:23 283 10 gusting 21 22.8
2014-Sep-18 19:23 285 13 gusting 26 22.2
2014-Sep-18 18:23 286 17 gusting 26 22.2